Time;durP1;ratioP1;P1;durP2;ratioP2;P2;SDS_P1;SDS_P2;PMS_P1;PMS_P2;Temp;Humidity;BMP_temperature;BMP_pressure;BME280_temperature;BME280_humidity;BME280_pressure;Samples;Min_cycle;Max_cycle;Signal;HPM_P1;HPM_P2
2023/07/16 00:02:04;;;;;;;4.45;2.70;;;25.70;99.90;;;;;;5047509;28;20193;-74
2023/07/16 00:04:30;;;;;;;3.38;2.85;;;25.70;99.90;;;;;;5049253;28;20170;-74
2023/07/16 00:06:56;;;;;;;4.38;2.47;;;25.70;99.90;;;;;;5046671;28;20192;-74
2023/07/16 00:09:22;;;;;;;3.03;2.70;;;25.70;99.90;;;;;;5051890;28;20263;-74
2023/07/16 00:11:47;;;;;;;3.55;2.75;;;25.60;99.90;;;;;;5049666;28;20274;-74
2023/07/16 00:14:13;;;;;;;3.20;2.55;;;25.60;99.90;;;;;;5043641;28;20172;-74
2023/07/16 00:16:39;;;;;;;3.28;2.78;;;25.50;99.90;;;;;;5044807;28;20192;-74
2023/07/16 00:19:04;;;;;;;2.80;2.60;;;25.50;99.90;;;;;;5045005;28;20212;-74
2023/07/16 00:21:30;;;;;;;3.70;2.55;;;25.40;99.90;;;;;;5046007;28;20254;-74
2023/07/16 00:23:56;;;;;;;2.85;2.60;;;25.30;99.90;;;;;;5045776;28;20199;-74
2023/07/16 00:26:21;;;;;;;3.67;3.00;;;25.20;99.90;;;;;;5047969;28;20219;-74
2023/07/16 00:28:47;;;;;;;3.45;3.15;;;25.30;99.90;;;;;;5054854;28;20431;-74
2023/07/16 00:31:13;;;;;;;4.70;2.92;;;25.30;99.90;;;;;;5048033;28;20215;-74
2023/07/16 00:33:38;;;;;;;5.57;3.10;;;25.40;99.90;;;;;;5042895;28;20211;-74
2023/07/16 00:36:04;;;;;;;3.40;2.97;;;25.50;99.90;;;;;;5038184;28;20200;-74
2023/07/16 00:38:30;;;;;;;5.38;3.33;;;25.50;99.90;;;;;;5041364;28;20581;-74
2023/07/16 00:40:56;;;;;;;3.35;3.00;;;25.50;99.90;;;;;;5037910;28;20234;-74
2023/07/16 00:43:21;;;;;;;5.35;3.50;;;25.50;99.90;;;;;;5042567;28;20559;-74
2023/07/16 00:45:48;;;;;;;4.10;3.08;;;25.30;99.90;;;;;;5039299;28;20229;-73
2023/07/16 00:48:14;;;;;;;4.82;3.20;;;25.40;99.90;;;;;;5044768;28;20195;-74
2023/07/16 00:50:40;;;;;;;4.50;3.22;;;25.40;99.90;;;;;;5044583;28;20204;-74
2023/07/16 00:53:07;;;;;;;5.70;3.60;;;25.40;99.90;;;;;;5043805;28;20264;-73
2023/07/16 00:55:35;;;;;;;4.53;3.30;;;25.40;99.90;;;;;;5060394;28;20168;-74
2023/07/16 00:58:06;;;;;;;4.60;3.22;;;25.40;99.90;;;;;;5044058;28;20223;-74
2023/07/16 01:00:33;;;;;;;4.45;3.25;;;25.30;99.90;;;;;;5061166;28;20255;-75
2023/07/16 01:02:58;;;;;;;3.72;3.40;;;25.30;99.90;;;;;;5046097;28;20208;-74
2023/07/16 01:05:26;;;;;;;5.45;3.55;;;25.40;99.90;;;;;;5046852;28;20207;-74
2023/07/16 01:08:01;;;;;;;4.13;3.38;;;25.40;99.90;;;;;;5047622;28;20183;-73
2023/07/16 01:10:28;;;;;;;3.70;3.40;;;25.50;99.90;;;;;;5042586;28;20272;-73
2023/07/16 01:12:55;;;;;;;6.28;3.17;;;25.50;99.90;;;;;;5037446;28;21382;-73
2023/07/16 01:15:21;;;;;;;4.03;3.53;;;25.40;99.90;;;;;;5040237;28;20299;-74
2023/07/16 01:17:47;;;;;;;6.65;3.50;;;25.30;99.90;;;;;;5044790;28;20338;-74
2023/07/16 01:20:13;;;;;;;5.43;3.67;;;25.10;99.90;;;;;;5043736;28;20388;-74
2023/07/16 01:22:50;;;;;;;4.57;3.78;;;25.10;99.90;;;;;;5042458;28;20196;-74
2023/07/16 01:25:45;;;;;;;5.28;3.58;;;24.80;99.90;;;;;;5043059;28;20221;-75
2023/07/16 01:28:23;;;;;;;4.10;3.38;;;24.70;99.90;;;;;;5052040;28;20554;-74
2023/07/16 01:30:51;;;;;;;4.15;3.60;;;24.70;99.90;;;;;;5043491;28;20207;-74
2023/07/16 01:33:19;;;;;;;3.92;3.63;;;24.70;99.90;;;;;;5041409;28;20210;-74
2023/07/16 01:35:47;;;;;;;5.30;3.65;;;24.70;99.90;;;;;;5044156;28;20218;-76
2023/07/16 01:38:13;;;;;;;4.50;4.10;;;24.70;99.90;;;;;;5053214;28;20204;-75
2023/07/16 01:40:39;;;;;;;5.22;4.00;;;24.60;99.90;;;;;;5050203;28;20234;-74
2023/07/16 01:43:04;;;;;;;3.60;3.30;;;24.70;99.90;;;;;;5061603;28;20196;-73
2023/07/16 01:45:30;;;;;;;4.28;3.85;;;24.70;99.90;;;;;;5050186;28;20210;-73
2023/07/16 01:48:00;;;;;;;3.60;3.30;;;24.80;99.90;;;;;;5042973;28;20207;-75
2023/07/16 01:50:27;;;;;;;5.60;3.38;;;24.80;99.90;;;;;;5056419;28;20230;-74
2023/07/16 01:52:52;;;;;;;5.93;3.53;;;24.70;99.90;;;;;;5040370;28;20686;-75
2023/07/16 01:55:18;;;;;;;5.13;4.05;;;24.70;99.90;;;;;;5040895;28;20219;-74
2023/07/16 01:57:43;;;;;;;4.50;3.50;;;24.70;99.90;;;;;;5041595;28;20212;-75
2023/07/16 02:00:10;;;;;;;4.30;3.42;;;24.80;99.90;;;;;;5047655;28;20764;-74
2023/07/16 02:02:36;;;;;;;3.85;3.25;;;24.80;99.90;;;;;;5043129;28;20607;-75
2023/07/16 02:05:01;;;;;;;6.75;3.47;;;24.80;99.90;;;;;;5043608;28;20183;-75
2023/07/16 02:07:28;;;;;;;4.43;3.63;;;24.80;99.90;;;;;;5044818;28;20179;-74
2023/07/16 02:09:54;;;;;;;3.40;3.10;;;24.70;99.90;;;;;;5042671;28;20299;-74
2023/07/16 02:12:19;;;;;;;3.70;3.13;;;24.70;99.90;;;;;;5044900;28;20341;-75
2023/07/16 02:14:45;;;;;;;5.57;3.08;;;24.70;99.90;;;;;;5054296;28;20689;-75
2023/07/16 02:17:10;;;;;;;4.90;3.22;;;24.60;99.90;;;;;;5045965;28;20187;-74
2023/07/16 02:19:36;;;;;;;4.15;3.40;;;24.60;99.90;;;;;;5046964;28;20369;-75
2023/07/16 02:22:01;;;;;;;3.53;3.22;;;24.60;99.90;;;;;;5055430;28;20199;-74
2023/07/16 02:24:27;;;;;;;4.38;3.17;;;24.50;99.90;;;;;;5042575;28;20205;-74
2023/07/16 02:26:53;;;;;;;5.25;3.30;;;24.40;99.90;;;;;;5041731;28;20200;-75
2023/07/16 02:29:20;;;;;;;4.57;3.25;;;24.40;99.90;;;;;;5040972;28;20643;-74
2023/07/16 02:31:48;;;;;;;5.30;3.25;;;24.30;99.90;;;;;;5044252;28;20206;-74
2023/07/16 02:34:14;;;;;;;4.63;3.35;;;24.20;99.90;;;;;;5042527;28;20577;-75
2023/07/16 02:36:39;;;;;;;3.35;3.05;;;24.10;99.90;;;;;;5060444;28;20222;-75
2023/07/16 02:39:05;;;;;;;5.05;3.80;;;24.20;99.90;;;;;;5051305;28;20216;-75
2023/07/16 02:41:30;;;;;;;4.93;3.40;;;24.10;99.90;;;;;;5048524;28;20265;-75
2023/07/16 02:44:01;;;;;;;6.10;3.35;;;24.00;99.90;;;;;;5045857;28;20243;-74
2023/07/16 02:46:27;;;;;;;5.65;3.20;;;24.00;99.90;;;;;;5048024;28;20286;-75
2023/07/16 02:48:52;;;;;;;4.10;3.40;;;23.90;99.90;;;;;;5046594;28;20215;-75
2023/07/16 02:51:18;;;;;;;4.15;3.13;;;23.70;99.90;;;;;;5042533;28;20211;-76
2023/07/16 02:53:44;;;;;;;7.82;3.20;;;23.80;99.90;;;;;;5042184;28;20199;-74
2023/07/16 02:56:09;;;;;;;6.70;3.30;;;23.80;99.90;;;;;;5050087;28;20638;-74
2023/07/16 02:58:35;;;;;;;3.80;3.40;;;23.80;99.90;;;;;;5050237;28;20231;-75
2023/07/16 03:01:00;;;;;;;4.03;3.22;;;23.70;99.90;;;;;;5057013;28;20592;-75
2023/07/16 03:03:26;;;;;;;4.65;3.30;;;23.60;99.90;;;;;;5049933;28;20200;-75
2023/07/16 03:05:51;;;;;;;4.15;3.38;;;23.60;99.90;;;;;;5049652;28;20209;-73
2023/07/16 03:08:17;;;;;;;4.82;3.30;;;23.50;99.90;;;;;;5049770;28;20179;-75
2023/07/16 03:10:43;;;;;;;3.78;3.40;;;23.60;99.90;;;;;;5042680;28;20182;-73
2023/07/16 03:13:08;;;;;;;4.35;3.25;;;23.60;99.90;;;;;;5046759;28;20207;-74
2023/07/16 03:15:34;;;;;;;3.95;3.50;;;23.50;99.90;;;;;;5065387;28;20269;-75
2023/07/16 03:17:59;;;;;;;5.07;3.38;;;23.30;99.90;;;;;;5049684;28;20726;-76
2023/07/16 03:20:25;;;;;;;4.70;3.65;;;23.20;99.90;;;;;;5049809;28;20226;-74
2023/07/16 03:22:51;;;;;;;4.65;3.58;;;23.20;99.90;;;;;;5047932;28;20760;-73
2023/07/16 03:25:16;;;;;;;4.32;3.42;;;23.00;99.90;;;;;;5043255;28;20231;-76
2023/07/16 03:27:42;;;;;;;6.78;4.05;;;22.90;99.90;;;;;;5048393;28;20998;-75
2023/07/16 03:30:08;;;;;;;4.47;3.70;;;22.90;99.90;;;;;;5048093;28;20208;-75
2023/07/16 03:32:34;;;;;;;5.28;3.65;;;22.70;99.90;;;;;;5047014;28;20214;-76
2023/07/16 03:34:59;;;;;;;5.32;4.03;;;22.60;99.90;;;;;;5050098;28;20278;-75
2023/07/16 03:37:25;;;;;;;4.60;4.00;;;22.60;99.90;;;;;;5049697;28;20246;-75
2023/07/16 03:39:51;;;;;;;5.75;4.55;;;22.70;99.90;;;;;;5048998;28;20214;-74
2023/07/16 03:42:17;;;;;;;3.53;3.13;;;22.50;99.90;;;;;;5048164;28;20231;-75
2023/07/16 03:44:43;;;;;;;4.95;3.05;;;22.50;99.90;;;;;;5049300;28;20649;-76
2023/07/16 03:47:08;;;;;;;3.83;2.72;;;22.50;99.90;;;;;;5049134;28;20217;-75
2023/07/16 03:49:34;;;;;;;3.53;2.85;;;22.60;99.90;;;;;;5047758;28;20512;-74
2023/07/16 03:51:59;;;;;;;4.93;2.88;;;22.70;99.90;;;;;;5047714;28;20677;-75
2023/07/16 03:54:25;;;;;;;3.58;3.10;;;22.90;99.90;;;;;;5045324;28;20218;-75
2023/07/16 03:56:51;;;;;;;3.10;2.80;;;22.90;99.90;;;;;;5048861;28;20215;-74
2023/07/16 03:59:16;;;;;;;3.05;2.75;;;23.00;99.90;;;;;;5049062;28;20246;-75
2023/07/16 04:01:42;;;;;;;3.85;2.58;;;23.10;99.90;;;;;;5063646;28;20668;-75
2023/07/16 04:04:07;;;;;;;4.97;2.80;;;23.20;99.90;;;;;;5045758;28;20294;-75
2023/07/16 04:06:33;;;;;;;3.88;2.60;;;23.30;99.90;;;;;;5049004;28;20345;-75
2023/07/16 04:08:58;;;;;;;4.97;2.83;;;23.30;99.90;;;;;;5042207;28;20558;-76
2023/07/16 04:11:24;;;;;;;3.35;2.58;;;23.40;99.90;;;;;;5048454;28;20218;-75
2023/07/16 04:13:50;;;;;;;6.43;3.20;;;23.20;99.90;;;;;;5056554;28;20184;-75
2023/07/16 04:16:15;;;;;;;3.03;2.60;;;23.20;99.90;;;;;;5048471;28;20685;-76
2023/07/16 04:18:41;;;;;;;3.55;3.05;;;23.10;99.90;;;;;;5048461;28;20293;-74
2023/07/16 04:21:06;;;;;;;3.38;2.78;;;23.10;99.90;;;;;;5046684;28;20226;-75
2023/07/16 04:23:32;;;;;;;3.65;3.03;;;23.20;99.90;;;;;;5044289;28;20207;-74
2023/07/16 04:25:58;;;;;;;3.35;2.50;;;23.10;99.90;;;;;;5044656;28;20168;-75
2023/07/16 04:28:23;;;;;;;4.55;2.70;;;23.30;99.90;;;;;;5043063;28;20728;-74
2023/07/16 04:30:49;;;;;;;3.65;2.60;;;23.30;99.90;;;;;;5046481;28;20212;-76
2023/07/16 04:33:15;;;;;;;5.40;2.95;;;23.20;99.90;;;;;;5048441;28;20215;-76
2023/07/16 04:35:40;;;;;;;4.95;3.03;;;23.30;99.90;;;;;;5048611;28;20772;-75
2023/07/16 04:38:07;;;;;;;3.85;3.00;;;23.30;99.90;;;;;;5056550;28;20561;-75
2023/07/16 04:40:33;;;;;;;3.30;2.40;;;23.00;99.90;;;;;;5046323;28;20692;-77
2023/07/16 04:42:59;;;;;;;3.13;2.80;;;23.10;99.90;;;;;;5048059;28;20211;-75
2023/07/16 04:45:25;;;;;;;5.35;2.72;;;22.90;99.90;;;;;;5044970;28;20670;-75
2023/07/16 04:47:50;;;;;;;3.53;2.65;;;22.90;99.90;;;;;;5063265;28;20212;-76
2023/07/16 04:50:16;;;;;;;3.30;2.90;;;22.90;99.90;;;;;;5049625;28;20190;-75
2023/07/16 04:52:42;;;;;;;3.70;2.63;;;23.00;99.90;;;;;;5049898;28;20219;-75
2023/07/16 04:55:07;;;;;;;2.83;2.58;;;23.00;99.90;;;;;;5066043;28;20208;-75
2023/07/16 04:57:33;;;;;;;5.20;4.57;;;23.10;99.90;;;;;;5047535;28;20207;-74
2023/07/16 04:59:59;;;;;;;3.80;2.83;;;23.20;99.90;;;;;;5044765;28;20207;-74
2023/07/16 05:02:25;;;;;;;3.65;3.00;;;23.20;99.90;;;;;;5046237;28;20211;-75
2023/07/16 05:04:50;;;;;;;3.33;3.03;;;23.30;99.90;;;;;;5043782;28;20184;-75
2023/07/16 05:07:16;;;;;;;3.38;3.08;;;23.40;99.90;;;;;;5038866;28;20219;-75
2023/07/16 05:09:43;;;;;;;3.40;3.10;;;23.40;99.90;;;;;;5043942;28;20634;-75
2023/07/16 05:12:08;;;;;;;3.50;3.20;;;23.50;99.90;;;;;;5052029;28;20219;-75
2023/07/16 05:14:46;;;;;;;5.00;3.40;;;23.50;99.90;;;;;;5041718;28;20700;-75
2023/07/16 05:17:13;;;;;;;4.75;3.25;;;23.50;99.90;;;;;;5044876;28;20175;-76
2023/07/16 05:19:38;;;;;;;4.82;3.53;;;23.60;99.90;;;;;;5044474;28;20211;-75
2023/07/16 05:22:04;;;;;;;4.72;3.22;;;23.60;99.90;;;;;;5056710;28;20282;-75
2023/07/16 05:24:31;;;;;;;5.93;3.80;;;23.60;99.90;;;;;;5048375;28;20689;-73
2023/07/16 05:26:57;;;;;;;5.95;3.60;;;23.60;99.90;;;;;;5044478;28;20207;-77
2023/07/16 05:29:23;;;;;;;4.63;2.78;;;24.90;99.90;;;;;;5042368;28;20206;-76
2023/07/16 05:31:49;;;;;;;3.17;2.70;;;26.70;99.90;;;;;;5040775;28;20187;-76
2023/07/16 05:34:14;;;;;;;4.32;3.05;;;27.30;99.90;;;;;;5060002;28;20287;-75
2023/07/16 05:36:41;;;;;;;4.60;3.20;;;27.50;99.90;;;;;;5040855;28;20239;-74
2023/07/16 05:39:08;;;;;;;3.67;3.17;;;27.60;99.90;;;;;;5040730;28;20287;-76
2023/07/16 05:41:34;;;;;;;3.47;3.17;;;27.30;99.90;;;;;;5040229;28;20207;-76
2023/07/16 05:43:59;;;;;;;2.88;2.58;;;27.20;99.90;;;;;;5043458;28;20184;-76
2023/07/16 05:46:25;;;;;;;6.47;3.60;;;27.30;99.90;;;;;;5059127;28;20203;-75
2023/07/16 05:48:51;;;;;;;7.43;2.97;;;28.20;99.90;;;;;;5044048;28;20216;-76
2023/07/16 05:51:17;;;;;;;3.67;2.72;;;28.90;99.90;;;;;;5043037;28;20216;-76
2023/07/16 05:53:42;;;;;;;5.40;3.10;;;28.70;99.90;;;;;;5045674;28;20343;-75
2023/07/16 05:56:08;;;;;;;3.20;2.90;;;29.20;99.90;;;;;;5045200;28;20535;-75
2023/07/16 05:58:33;;;;;;;4.85;3.33;;;31.00;99.90;;;;;;5050854;28;20233;-76
2023/07/16 06:00:59;;;;;;;5.78;5.15;;;32.10;99.90;;;;;;5066130;28;20717;-74
2023/07/16 06:03:25;;;;;;;5.57;3.47;;;32.90;99.90;;;;;;5047934;28;20200;-76
2023/07/16 06:05:50;;;;;;;4.05;3.70;;;34.10;99.90;;;;;;5058310;28;20211;-75
2023/07/16 06:08:16;;;;;;;5.45;3.75;;;34.30;99.90;;;;;;5060857;28;20703;-75
2023/07/16 06:10:41;;;;;;;4.20;2.90;;;34.50;99.90;;;;;;5043728;28;20343;-75
2023/07/16 06:13:07;;;;;;;3.67;2.70;;;35.10;99.90;;;;;;5044528;28;20284;-73
2023/07/16 06:15:33;;;;;;;3.78;2.90;;;35.70;99.90;;;;;;5047019;28;20245;-73
2023/07/16 06:17:58;;;;;;;3.35;2.90;;;35.80;99.90;;;;;;5048502;28;20294;-74
2023/07/16 06:20:24;;;;;;;3.35;2.45;;;36.00;99.90;;;;;;5043793;28;20200;-74
2023/07/16 06:22:49;;;;;;;2.80;2.60;;;36.80;99.90;;;;;;5047781;28;20278;-73
2023/07/16 06:25:15;;;;;;;2.97;2.78;;;37.20;99.90;;;;;;5054484;28;20206;-73
2023/07/16 06:27:41;;;;;;;2.58;2.38;;;37.50;99.90;;;;;;5049793;28;20207;-74
2023/07/16 06:30:07;;;;;;;3.65;2.60;;;37.80;99.90;;;;;;5049278;28;20241;-77
2023/07/16 06:32:32;;;;;;;2.95;2.70;;;37.70;99.90;;;;;;5048968;28;20589;-73
2023/07/16 06:34:58;;;;;;;3.38;3.08;;;38.20;99.90;;;;;;5047258;28;20204;-73
2023/07/16 06:37:24;;;;;;;3.38;2.60;;;38.50;99.90;;;;;;5048499;28;20310;-73
2023/07/16 06:39:49;;;;;;;3.33;2.83;;;39.00;99.90;;;;;;5046535;28;20211;-74
2023/07/16 06:42:15;;;;;;;4.53;2.90;;;39.40;98.50;;;;;;5044881;28;20211;-73
2023/07/16 06:44:41;;;;;;;3.00;2.80;;;39.30;97.10;;;;;;5055914;28;20227;-74
2023/07/16 06:47:07;;;;;;;2.70;2.45;;;39.10;97.10;;;;;;5043443;28;20176;-74
2023/07/16 06:49:32;;;;;;;2.67;2.33;;;39.80;95.90;;;;;;5041250;28;20206;-77
2023/07/16 06:52:02;;;;;;;2.58;2.25;;;40.00;95.10;;;;;;5044632;28;20296;-76
2023/07/16 06:54:27;;;;;;;2.97;2.65;;;39.30;95.60;;;;;;5045580;28;20655;-74
2023/07/16 06:56:53;;;;;;;3.33;2.55;;;40.00;94.60;;;;;;5046214;28;20211;-74
2023/07/16 06:59:19;;;;;;;2.50;2.30;;;39.80;94.40;;;;;;5048027;28;20211;-73
2023/07/16 07:01:44;;;;;;;2.50;2.30;;;38.90;94.20;;;;;;5047293;28;20214;-76
2023/07/16 07:04:10;;;;;;;2.80;2.45;;;38.80;94.40;;;;;;5046735;28;20697;-76
2023/07/16 07:06:35;;;;;;;2.60;2.40;;;37.40;95.70;;;;;;5046635;28;20214;-75
2023/07/16 07:09:01;;;;;;;2.60;2.38;;;36.00;97.90;;;;;;5048028;28;20214;-75
2023/07/16 07:11:27;;;;;;;2.88;2.67;;;34.80;99.80;;;;;;5064695;28;20210;-75
2023/07/16 07:13:52;;;;;;;4.15;2.78;;;33.60;99.90;;;;;;5053019;28;20211;-75
2023/07/16 07:16:19;;;;;;;2.67;2.47;;;34.00;99.90;;;;;;5050469;28;20225;-75
2023/07/16 07:18:45;;;;;;;3.13;2.45;;;35.40;99.90;;;;;;5051901;28;20215;-74
2023/07/16 07:21:10;;;;;;;5.50;2.67;;;36.40;99.90;;;;;;5050450;28;20215;-72
2023/07/16 07:23:36;;;;;;;3.20;2.70;;;36.70;99.90;;;;;;5050640;28;20211;-73
2023/07/16 07:26:01;;;;;;;2.95;2.63;;;36.40;99.60;;;;;;5041273;28;20202;-73
2023/07/16 07:28:27;;;;;;;2.75;2.55;;;36.70;99.50;;;;;;5049242;28;20190;-73
2023/07/16 07:30:53;;;;;;;2.75;2.38;;;36.60;98.70;;;;;;5047935;28;20566;-73
2023/07/16 07:33:19;;;;;;;3.17;2.75;;;35.90;98.70;;;;;;5055636;28;20215;-74
2023/07/16 07:35:44;;;;;;;3.65;2.53;;;35.00;99.90;;;;;;5056179;28;20625;-73
2023/07/16 07:38:10;;;;;;;3.35;2.25;;;33.50;99.90;;;;;;5051889;28;20219;-76
2023/07/16 07:40:35;;;;;;;3.15;2.55;;;33.10;99.90;;;;;;5059660;28;20177;-74
2023/07/16 07:43:01;;;;;;;4.72;2.88;;;32.00;99.90;;;;;;5057089;28;20215;-74
2023/07/16 07:45:27;;;;;;;5.15;3.38;;;30.70;99.90;;;;;;5060997;28;20207;-73
2023/07/16 07:47:52;;;;;;;3.13;2.83;;;31.00;99.90;;;;;;5048582;28;20217;-73
2023/07/16 07:50:18;;;;;;;4.07;2.75;;;32.70;99.90;;;;;;5054269;28;20180;-74
2023/07/16 07:52:43;;;;;;;2.53;2.33;;;34.60;99.90;;;;;;5052464;28;20781;-74
2023/07/16 07:55:09;;;;;;;2.78;2.15;;;35.80;99.90;;;;;;5050641;28;20214;-74
2023/07/16 07:57:35;;;;;;;3.03;2.08;;;37.40;99.60;;;;;;5049675;28;20207;-74
2023/07/16 08:00:01;;;;;;;2.10;1.88;;;38.00;96.90;;;;;;5046532;28;20292;-74
2023/07/16 08:02:27;;;;;;;3.40;2.33;;;36.90;96.90;;;;;;5044464;28;20211;-73
2023/07/16 08:04:53;;;;;;;2.60;2.10;;;35.00;98.90;;;;;;5042301;28;20179;-74
2023/07/16 08:07:19;;;;;;;6.45;4.82;;;33.60;99.90;;;;;;5040561;28;20214;-73
2023/07/16 08:09:46;;;;;;;3.53;2.55;;;32.20;99.90;;;;;;5043532;28;20640;-72
2023/07/16 08:12:11;;;;;;;7.20;3.95;;;30.80;99.90;;;;;;5042952;28;20230;-73
2023/07/16 08:14:37;;;;;;;2.35;1.83;;;30.00;99.90;;;;;;5040726;28;20820;-73
2023/07/16 08:17:03;;;;;;;3.85;3.00;;;30.90;99.90;;;;;;5043292;28;20531;-73
2023/07/16 08:19:29;;;;;;;2.42;2.05;;;32.60;99.90;;;;;;5045245;28;20215;-74
2023/07/16 08:21:55;;;;;;;2.88;1.90;;;34.00;99.90;;;;;;5042537;28;20219;-74
2023/07/16 08:24:20;;;;;;;1.65;1.55;;;35.70;98.00;;;;;;5042707;28;20220;-74
2023/07/16 08:26:46;;;;;;;2.28;1.88;;;36.40;96.60;;;;;;5043504;28;20225;-74
2023/07/16 08:29:12;;;;;;;3.25;2.15;;;37.70;94.70;;;;;;5039068;28;20186;-74
2023/07/16 08:31:37;;;;;;;2.53;1.70;;;38.40;92.70;;;;;;5045913;28;20233;-74
2023/07/16 08:34:03;;;;;;;3.70;1.80;;;38.70;90.70;;;;;;5042498;28;20272;-74
2023/07/16 08:36:28;;;;;;;4.20;2.13;;;38.70;89.40;;;;;;5042740;28;20210;-72
2023/07/16 08:38:54;;;;;;;2.08;1.88;;;38.30;89.30;;;;;;5042307;28;20219;-73
2023/07/16 08:41:20;;;;;;;1.80;1.58;;;38.60;87.80;;;;;;5042652;28;20206;-73
2023/07/16 08:43:49;;;;;;;3.80;2.58;;;38.40;87.00;;;;;;5043617;28;20183;-73
2023/07/16 08:46:18;;;;;;;5.05;2.63;;;38.00;87.00;;;;;;5041802;28;20211;-72
2023/07/16 08:48:45;;;;;;;3.13;2.03;;;37.50;88.30;;;;;;5039662;28;20203;-73
2023/07/16 08:51:14;;;;;;;3.33;2.20;;;36.90;88.40;;;;;;5042006;28;20202;-73
2023/07/16 08:53:40;;;;;;;2.25;1.65;;;36.70;89.70;;;;;;5044652;28;20202;-73
2023/07/16 08:56:06;;;;;;;4.88;1.90;;;37.10;89.70;;;;;;5046775;28;20175;-75
2023/07/16 08:58:32;;;;;;;3.25;2.30;;;37.00;88.90;;;;;;5045085;28;20205;-73
2023/07/16 09:01:00;;;;;;;2.40;2.13;;;37.00;88.30;;;;;;5062191;28;20207;-74
2023/07/16 09:03:26;;;;;;;3.20;2.08;;;36.40;88.30;;;;;;5046924;28;20261;-72
2023/07/16 09:05:53;;;;;;;3.95;2.08;;;35.30;90.10;;;;;;5047565;28;20211;-74
2023/07/16 09:08:18;;;;;;;4.95;2.50;;;34.40;91.60;;;;;;5043317;28;20194;-74
2023/07/16 09:10:44;;;;;;;3.97;2.53;;;34.80;91.40;;;;;;5047784;28;20503;-74
2023/07/16 09:13:10;;;;;;;3.33;1.85;;;35.60;90.80;;;;;;5044351;28;20215;-74
2023/07/16 09:15:37;;;;;;;1.88;1.55;;;35.80;90.00;;;;;;5039623;28;20215;-74
2023/07/16 09:18:03;;;;;;;3.45;2.22;;;35.50;89.90;;;;;;5043740;28;20314;-74
2023/07/16 09:20:30;;;;;;;3.15;1.77;;;35.10;90.20;;;;;;5042672;28;20219;-74
2023/07/16 09:22:57;;;;;;;3.42;2.03;;;34.30;91.10;;;;;;5060049;28;20796;-74
2023/07/16 09:25:30;;;;;;;2.85;1.80;;;33.70;91.80;;;;;;5043294;28;20211;-74
2023/07/16 09:28:00;;;;;;;2.88;2.45;;;33.90;91.50;;;;;;5043259;28;20708;-74
2023/07/16 09:30:34;;;;;;;5.65;2.22;;;34.50;91.10;;;;;;5045184;28;20648;-74
2023/07/16 09:33:25;;;;;;;2.25;1.80;;;34.90;90.10;;;;;;5043967;28;20269;-74
2023/07/16 09:35:51;;;;;;;4.90;2.42;;;35.10;90.00;;;;;;5045632;28;20208;-75
2023/07/16 09:38:18;;;;;;;3.35;2.45;;;35.40;89.80;;;;;;5050826;28;20213;-74
2023/07/16 09:40:44;;;;;;;4.15;2.17;;;35.40;90.20;;;;;;5046996;28;20179;-74
2023/07/16 09:43:11;;;;;;;6.10;1.98;;;34.80;90.20;;;;;;5051840;28;20219;-74
2023/07/16 09:45:37;;;;;;;5.38;1.70;;;34.50;90.20;;;;;;5040105;28;20299;-74
2023/07/16 09:48:04;;;;;;;2.10;1.90;;;34.00;90.50;;;;;;5046769;28;20642;-72
2023/07/16 09:50:34;;;;;;;3.58;1.98;;;33.70;91.30;;;;;;5047658;28;20223;-72
2023/07/16 09:53:02;;;;;;;2.88;2.00;;;33.80;90.70;;;;;;5045262;28;20718;-72
2023/07/16 09:55:32;;;;;;;2.80;1.75;;;33.80;90.10;;;;;;5040312;28;20235;-73
2023/07/16 09:58:01;;;;;;;3.45;2.25;;;33.80;90.70;;;;;;5044288;28;20288;-74
2023/07/16 10:00:27;;;;;;;3.30;1.95;;;33.30;91.20;;;;;;5049307;28;20225;-73
2023/07/16 10:02:53;;;;;;;2.65;1.75;;;33.20;91.00;;;;;;5047788;28;20349;-74
2023/07/16 10:05:27;;;;;;;4.68;2.13;;;33.20;90.90;;;;;;5044235;28;20713;-73
2023/07/16 10:07:54;;;;;;;4.20;2.63;;;33.50;90.60;;;;;;5050667;28;20180;-74
2023/07/16 10:10:21;;;;;;;3.05;1.90;;;33.70;91.00;;;;;;5063194;28;20207;-74
2023/07/16 10:13:00;;;;;;;6.82;2.70;;;33.90;91.20;;;;;;5050537;28;20297;-74
2023/07/16 10:15:28;;;;;;;4.68;3.17;;;33.70;91.70;;;;;;5046701;28;20237;-73
2023/07/16 10:17:54;;;;;;;9.73;5.43;;;33.80;91.50;;;;;;5044693;28;20216;-75
2023/07/16 10:20:42;;;;;;;4.35;2.72;;;33.20;92.30;;;;;;5045840;28;20187;-73
2023/07/16 10:23:12;;;;;;;3.08;2.30;;;32.90;93.00;;;;;;5045586;28;20858;-72
2023/07/16 10:25:39;;;;;;;4.03;2.30;;;32.30;92.80;;;;;;5050475;28;20650;-72
2023/07/16 10:28:05;;;;;;;4.88;2.60;;;32.10;92.70;;;;;;5039784;28;20251;-72
2023/07/16 10:30:31;;;;;;;4.60;2.40;;;32.30;93.70;;;;;;5046683;28;20235;-73
2023/07/16 10:32:56;;;;;;;4.15;2.45;;;32.00;93.90;;;;;;5049303;28;20265;-72
2023/07/16 10:35:22;;;;;;;4.95;2.20;;;31.80;94.10;;;;;;5048456;28;20231;-72
2023/07/16 10:37:48;;;;;;;5.28;2.13;;;31.90;94.80;;;;;;5047858;28;20179;-72
2023/07/16 10:40:14;;;;;;;5.63;2.17;;;31.80;95.00;;;;;;5048502;28;20933;-71
2023/07/16 10:42:42;;;;;;;5.15;2.38;;;31.00;94.80;;;;;;5048124;28;20203;-71
2023/07/16 10:45:09;;;;;;;4.72;2.10;;;30.60;95.90;;;;;;5046516;28;20208;-72
2023/07/16 10:47:39;;;;;;;4.45;2.40;;;30.80;95.70;;;;;;5048325;28;20208;-71
2023/07/16 10:50:09;;;;;;;3.40;2.00;;;31.10;95.10;;;;;;5043126;28;20703;-71
2023/07/16 10:52:37;;;;;;;9.30;2.35;;;31.50;94.70;;;;;;5053181;28;20616;-71
2023/07/16 10:55:03;;;;;;;5.28;2.25;;;32.10;94.60;;;;;;5048680;28;20223;-71
2023/07/16 10:57:28;;;;;;;4.55;2.22;;;32.50;94.90;;;;;;5044552;28;20215;-72
2023/07/16 10:59:57;;;;;;;3.85;2.20;;;32.80;93.30;;;;;;5045658;28;20280;-71
2023/07/16 11:02:24;;;;;;;4.85;2.38;;;32.90;93.70;;;;;;5047763;28;20223;-71
2023/07/16 11:04:53;;;;;;;3.13;2.22;;;33.10;93.00;;;;;;5045497;28;20188;-71
2023/07/16 11:07:19;;;;;;;4.20;2.13;;;33.00;92.50;;;;;;5044239;28;20243;-71
2023/07/16 11:09:50;;;;;;;5.22;3.13;;;32.60;92.50;;;;;;5046973;28;20240;-71
2023/07/16 11:12:19;;;;;;;4.18;2.97;;;32.50;92.80;;;;;;5043200;28;20694;-69
2023/07/16 11:14:55;;;;;;;2.90;2.60;;;32.50;93.10;;;;;;5047087;28;20211;-70
2023/07/16 11:17:22;;;;;;;4.85;2.83;;;32.80;93.20;;;;;;5045412;28;20215;-71
2023/07/16 11:19:51;;;;;;;4.13;2.65;;;32.60;92.50;;;;;;5044814;28;20686;-70
2023/07/16 11:22:17;;;;;;;4.07;2.53;;;32.20;93.30;;;;;;5047658;28;20913;-71
2023/07/16 11:24:48;;;;;;;2.50;2.20;;;31.90;93.50;;;;;;5049711;28;20895;-70
2023/07/16 11:27:15;;;;;;;2.90;1.85;;;31.90;93.70;;;;;;5041134;28;20295;-71
2023/07/16 11:29:47;;;;;;;3.78;2.60;;;32.10;93.90;;;;;;5043159;28;20218;-70
2023/07/16 11:32:13;;;;;;;4.72;2.15;;;31.90;93.70;;;;;;5043032;28;20658;-70
2023/07/16 11:34:52;;;;;;;3.92;2.15;;;31.80;93.40;;;;;;5041313;28;20202;-70
2023/07/16 11:37:18;;;;;;;5.55;2.20;;;31.60;93.60;;;;;;5041127;28;20219;-71
2023/07/16 11:39:44;;;;;;;5.03;2.20;;;31.50;93.70;;;;;;5044443;28;20611;-71
2023/07/16 11:42:09;;;;;;;6.35;4.13;;;31.50;93.60;;;;;;5044927;28;20211;-70
2023/07/16 11:44:35;;;;;;;3.70;2.80;;;31.30;94.30;;;;;;5041166;28;20257;-71
2023/07/16 11:47:03;;;;;;;5.72;3.42;;;31.10;93.50;;;;;;5045362;28;20206;-72
2023/07/16 11:49:29;;;;;;;3.83;2.33;;;30.60;91.80;;;;;;5042779;28;20182;-71
2023/07/16 11:51:54;;;;;;;4.43;2.47;;;30.30;92.10;;;;;;5042852;28;20211;-71
2023/07/16 11:54:20;;;;;;;4.43;2.45;;;30.60;92.80;;;;;;5041838;28;20492;-71
2023/07/16 11:56:47;;;;;;;2.60;2.10;;;30.60;93.10;;;;;;5041664;28;20731;-71
2023/07/16 11:59:12;;;;;;;4.53;2.20;;;30.90;93.20;;;;;;5043541;28;20231;-71
2023/07/16 12:01:38;;;;;;;3.50;2.20;;;31.00;92.30;;;;;;5046969;28;20639;-72
2023/07/16 12:04:04;;;;;;;5.07;2.22;;;31.20;91.10;;;;;;5047040;28;20206;-71
2023/07/16 12:06:29;;;;;;;4.90;2.85;;;31.20;91.10;;;;;;5047291;28;20214;-70
2023/07/16 12:08:55;;;;;;;4.50;2.50;;;31.20;91.20;;;;;;5046588;28;20257;-71
2023/07/16 12:11:22;;;;;;;3.00;2.15;;;31.30;90.90;;;;;;5044950;28;20243;-71
2023/07/16 12:13:48;;;;;;;4.10;2.15;;;31.30;90.00;;;;;;5040296;28;20195;-72
2023/07/16 12:16:13;;;;;;;3.38;1.95;;;31.40;87.40;;;;;;5043369;28;20290;-75
2023/07/16 12:18:39;;;;;;;4.25;1.80;;;31.40;86.20;;;;;;5041591;28;20261;-70
2023/07/16 12:21:06;;;;;;;4.72;2.50;;;30.80;85.50;;;;;;5044078;28;20303;-71
2023/07/16 12:23:31;;;;;;;2.50;2.00;;;30.70;85.50;;;;;;5043673;28;20211;-71
2023/07/16 12:25:57;;;;;;;3.72;2.40;;;30.60;85.50;;;;;;5040411;28;20669;-71
2023/07/16 12:28:23;;;;;;;3.67;2.45;;;30.80;86.20;;;;;;5045530;28;20767;-71
2023/07/16 12:30:48;;;;;;;3.40;2.20;;;30.70;84.60;;;;;;5046139;28;20230;-71
2023/07/16 12:33:14;;;;;;;4.47;2.08;;;30.60;84.40;;;;;;5044207;28;20203;-71
2023/07/16 12:35:39;;;;;;;2.70;1.95;;;30.60;83.60;;;;;;5044972;28;20222;-75
2023/07/16 12:38:05;;;;;;;4.95;1.85;;;30.70;82.50;;;;;;5046581;28;20220;-74
2023/07/16 12:40:31;;;;;;;4.10;1.95;;;30.70;82.50;;;;;;5042923;28;20180;-73
2023/07/16 12:42:56;;;;;;;4.00;2.25;;;30.70;81.60;;;;;;5036894;28;20237;-72
2023/07/16 12:45:22;;;;;;;3.65;2.10;;;30.50;81.60;;;;;;5042108;28;20218;-71